sensor_id;sensor_type;location;lat;lon;timestamp;P1;durP1;ratioP1;P2;durP2;ratioP2
3261;SDS011;1643;47.746;9.000;2022-08-21T00:01:41;1.50;;;1.40;;
3261;SDS011;1643;47.746;9.000;2022-08-21T00:04:07;1.83;;;1.40;;
3261;SDS011;1643;47.746;9.000;2022-08-21T00:06:35;1.40;;;1.30;;
3261;SDS011;1643;47.746;9.000;2022-08-21T00:09:02;1.47;;;1.37;;
3261;SDS011;1643;47.746;9.000;2022-08-21T00:11:29;1.20;;;1.10;;
3261;SDS011;1643;47.746;9.000;2022-08-21T00:13:55;1.43;;;1.20;;
3261;SDS011;1643;47.746;9.000;2022-08-21T00:16:21;1.43;;;1.33;;
3261;SDS011;1643;47.746;9.000;2022-08-21T00:18:46;3.03;;;1.37;;
3261;SDS011;1643;47.746;9.000;2022-08-21T00:21:12;1.53;;;1.00;;
3261;SDS011;1643;47.746;9.000;2022-08-21T00:23:39;1.40;;;1.30;;
3261;SDS011;1643;47.746;9.000;2022-08-21T00:26:05;2.00;;;1.33;;
3261;SDS011;1643;47.746;9.000;2022-08-21T00:28:31;1.60;;;1.50;;
3261;SDS011;1643;47.746;9.000;2022-08-21T00:30:57;3.17;;;1.40;;
3261;SDS011;1643;47.746;9.000;2022-08-21T00:33:23;1.40;;;1.30;;
3261;SDS011;1643;47.746;9.000;2022-08-21T00:35:50;1.40;;;1.30;;
3261;SDS011;1643;47.746;9.000;2022-08-21T00:38:16;1.60;;;1.50;;
3261;SDS011;1643;47.746;9.000;2022-08-21T00:40:44;1.73;;;1.63;;
3261;SDS011;1643;47.746;9.000;2022-08-21T00:43:16;1.47;;;1.37;;
3261;SDS011;1643;47.746;9.000;2022-08-21T00:45:44;1.50;;;1.40;;
3261;SDS011;1643;47.746;9.000;2022-08-21T00:48:10;1.43;;;1.30;;
3261;SDS011;1643;47.746;9.000;2022-08-21T00:50:40;2.00;;;1.57;;
3261;SDS011;1643;47.746;9.000;2022-08-21T00:53:09;2.30;;;1.17;;
3261;SDS011;1643;47.746;9.000;2022-08-21T00:55:36;1.67;;;1.30;;
3261;SDS011;1643;47.746;9.000;2022-08-21T00:58:03;7.83;;;1.17;;
3261;SDS011;1643;47.746;9.000;2022-08-21T01:00:32;5.07;;;1.60;;
3261;SDS011;1643;47.746;9.000;2022-08-21T01:03:02;1.27;;;1.17;;
3261;SDS011;1643;47.746;9.000;2022-08-21T01:05:32;4.53;;;1.50;;
3261;SDS011;1643;47.746;9.000;2022-08-21T01:07:58;3.10;;;1.60;;
3261;SDS011;1643;47.746;9.000;2022-08-21T01:10:24;1.20;;;1.10;;
3261;SDS011;1643;47.746;9.000;2022-08-21T01:12:52;1.53;;;1.43;;
3261;SDS011;1643;47.746;9.000;2022-08-21T01:15:20;2.50;;;1.80;;
3261;SDS011;1643;47.746;9.000;2022-08-21T01:17:49;1.67;;;1.47;;
3261;SDS011;1643;47.746;9.000;2022-08-21T01:20:16;1.50;;;1.40;;
3261;SDS011;1643;47.746;9.000;2022-08-21T01:22:42;1.70;;;1.60;;
3261;SDS011;1643;47.746;9.000;2022-08-21T01:25:08;6.83;;;1.80;;
3261;SDS011;1643;47.746;9.000;2022-08-21T01:27:35;2.20;;;1.30;;
3261;SDS011;1643;47.746;9.000;2022-08-21T01:30:03;1.20;;;1.10;;
3261;SDS011;1643;47.746;9.000;2022-08-21T01:32:35;1.60;;;1.50;;
3261;SDS011;1643;47.746;9.000;2022-08-21T01:35:01;2.47;;;1.70;;
3261;SDS011;1643;47.746;9.000;2022-08-21T01:37:27;3.23;;;2.00;;
3261;SDS011;1643;47.746;9.000;2022-08-21T01:39:53;2.07;;;1.80;;
3261;SDS011;1643;47.746;9.000;2022-08-21T01:42:19;2.73;;;1.93;;
3261;SDS011;1643;47.746;9.000;2022-08-21T01:44:44;1.80;;;1.70;;
3261;SDS011;1643;47.746;9.000;2022-08-21T01:47:11;3.83;;;1.50;;
3261;SDS011;1643;47.746;9.000;2022-08-21T01:49:38;1.60;;;1.50;;
3261;SDS011;1643;47.746;9.000;2022-08-21T01:52:05;1.47;;;1.20;;
3261;SDS011;1643;47.746;9.000;2022-08-21T01:54:31;1.80;;;1.70;;
3261;SDS011;1643;47.746;9.000;2022-08-21T01:56:57;6.43;;;1.90;;
3261;SDS011;1643;47.746;9.000;2022-08-21T01:59:24;1.87;;;1.70;;
3261;SDS011;1643;47.746;9.000;2022-08-21T02:01:49;4.80;;;1.80;;
3261;SDS011;1643;47.746;9.000;2022-08-21T02:04:16;2.30;;;2.10;;
3261;SDS011;1643;47.746;9.000;2022-08-21T02:06:41;2.33;;;2.13;;
3261;SDS011;1643;47.746;9.000;2022-08-21T02:09:08;2.53;;;2.33;;
3261;SDS011;1643;47.746;9.000;2022-08-21T02:11:35;4.10;;;2.07;;
3261;SDS011;1643;47.746;9.000;2022-08-21T02:14:05;6.90;;;2.10;;
3261;SDS011;1643;47.746;9.000;2022-08-21T02:16:41;5.60;;;2.70;;
3261;SDS011;1643;47.746;9.000;2022-08-21T02:19:08;2.23;;;1.97;;
3261;SDS011;1643;47.746;9.000;2022-08-21T02:21:34;2.07;;;1.97;;
3261;SDS011;1643;47.746;9.000;2022-08-21T02:24:00;1.90;;;1.80;;
3261;SDS011;1643;47.746;9.000;2022-08-21T02:26:26;2.17;;;1.97;;
3261;SDS011;1643;47.746;9.000;2022-08-21T02:28:52;2.27;;;2.07;;
3261;SDS011;1643;47.746;9.000;2022-08-21T02:31:18;2.30;;;2.10;;
3261;SDS011;1643;47.746;9.000;2022-08-21T02:33:44;5.00;;;2.53;;
3261;SDS011;1643;47.746;9.000;2022-08-21T02:36:10;2.17;;;2.03;;
3261;SDS011;1643;47.746;9.000;2022-08-21T02:38:37;2.73;;;2.53;;
3261;SDS011;1643;47.746;9.000;2022-08-21T02:41:09;2.73;;;2.20;;
3261;SDS011;1643;47.746;9.000;2022-08-21T02:43:39;4.67;;;2.43;;
3261;SDS011;1643;47.746;9.000;2022-08-21T02:46:06;2.83;;;2.23;;
3261;SDS011;1643;47.746;9.000;2022-08-21T02:48:33;5.10;;;2.40;;
3261;SDS011;1643;47.746;9.000;2022-08-21T02:51:00;2.97;;;2.77;;
3261;SDS011;1643;47.746;9.000;2022-08-21T02:53:33;7.37;;;3.00;;
3261;SDS011;1643;47.746;9.000;2022-08-21T02:56:00;2.60;;;2.20;;
3261;SDS011;1643;47.746;9.000;2022-08-21T02:58:31;3.73;;;2.70;;
3261;SDS011;1643;47.746;9.000;2022-08-21T03:01:02;2.60;;;2.40;;
3261;SDS011;1643;47.746;9.000;2022-08-21T03:03:28;2.80;;;2.53;;
3261;SDS011;1643;47.746;9.000;2022-08-21T03:05:54;4.33;;;2.70;;
3261;SDS011;1643;47.746;9.000;2022-08-21T03:08:21;7.60;;;2.63;;
3261;SDS011;1643;47.746;9.000;2022-08-21T03:10:48;5.40;;;3.10;;
3261;SDS011;1643;47.746;9.000;2022-08-21T03:13:15;2.73;;;2.53;;
3261;SDS011;1643;47.746;9.000;2022-08-21T03:15:43;4.87;;;3.00;;
3261;SDS011;1643;47.746;9.000;2022-08-21T03:18:09;3.63;;;3.33;;
3261;SDS011;1643;47.746;9.000;2022-08-21T03:20:36;5.43;;;2.83;;
3261;SDS011;1643;47.746;9.000;2022-08-21T03:23:04;3.50;;;2.80;;
3261;SDS011;1643;47.746;9.000;2022-08-21T03:25:31;3.23;;;3.00;;
3261;SDS011;1643;47.746;9.000;2022-08-21T03:27:57;3.07;;;2.87;;
3261;SDS011;1643;47.746;9.000;2022-08-21T03:30:23;3.40;;;3.10;;
3261;SDS011;1643;47.746;9.000;2022-08-21T03:32:49;3.90;;;2.90;;
3261;SDS011;1643;47.746;9.000;2022-08-21T03:35:16;3.47;;;3.17;;
3261;SDS011;1643;47.746;9.000;2022-08-21T03:37:42;3.23;;;2.93;;
3261;SDS011;1643;47.746;9.000;2022-08-21T03:40:10;3.00;;;2.77;;
3261;SDS011;1643;47.746;9.000;2022-08-21T03:42:36;3.97;;;2.97;;
3261;SDS011;1643;47.746;9.000;2022-08-21T03:45:02;3.40;;;3.10;;
3261;SDS011;1643;47.746;9.000;2022-08-21T03:47:29;3.27;;;3.00;;
3261;SDS011;1643;47.746;9.000;2022-08-21T03:49:54;3.27;;;2.97;;
3261;SDS011;1643;47.746;9.000;2022-08-21T03:52:20;2.97;;;2.77;;
3261;SDS011;1643;47.746;9.000;2022-08-21T03:54:46;2.00;;;1.90;;
3261;SDS011;1643;47.746;9.000;2022-08-21T03:57:12;2.57;;;2.37;;
3261;SDS011;1643;47.746;9.000;2022-08-21T03:59:38;3.13;;;2.83;;
3261;SDS011;1643;47.746;9.000;2022-08-21T04:02:04;3.03;;;2.83;;
3261;SDS011;1643;47.746;9.000;2022-08-21T04:04:31;2.80;;;2.60;;
3261;SDS011;1643;47.746;9.000;2022-08-21T04:06:58;2.70;;;2.50;;
3261;SDS011;1643;47.746;9.000;2022-08-21T04:09:24;3.50;;;3.20;;
3261;SDS011;1643;47.746;9.000;2022-08-21T04:11:51;10.63;;;2.53;;
3261;SDS011;1643;47.746;9.000;2022-08-21T04:14:17;2.80;;;2.20;;
3261;SDS011;1643;47.746;9.000;2022-08-21T04:16:43;2.43;;;2.23;;
3261;SDS011;1643;47.746;9.000;2022-08-21T04:19:09;2.50;;;2.30;;
3261;SDS011;1643;47.746;9.000;2022-08-21T04:21:36;2.70;;;2.50;;
3261;SDS011;1643;47.746;9.000;2022-08-21T04:24:03;4.90;;;2.60;;
3261;SDS011;1643;47.746;9.000;2022-08-21T04:26:29;3.10;;;2.90;;
3261;SDS011;1643;47.746;9.000;2022-08-21T04:28:56;3.57;;;2.70;;
3261;SDS011;1643;47.746;9.000;2022-08-21T04:31:22;4.87;;;2.73;;
3261;SDS011;1643;47.746;9.000;2022-08-21T04:33:49;3.10;;;2.90;;
3261;SDS011;1643;47.746;9.000;2022-08-21T04:36:15;2.90;;;2.70;;
3261;SDS011;1643;47.746;9.000;2022-08-21T04:38:42;2.80;;;2.60;;
3261;SDS011;1643;47.746;9.000;2022-08-21T04:41:07;2.90;;;2.70;;
3261;SDS011;1643;47.746;9.000;2022-08-21T04:43:33;3.93;;;2.80;;
3261;SDS011;1643;47.746;9.000;2022-08-21T04:45:59;3.50;;;3.20;;
3261;SDS011;1643;47.746;9.000;2022-08-21T04:48:25;3.97;;;3.67;;
3261;SDS011;1643;47.746;9.000;2022-08-21T04:53:22;4.97;;;4.47;;
3261;SDS011;1643;47.746;9.000;2022-08-21T04:55:53;4.57;;;3.73;;
3261;SDS011;1643;47.746;9.000;2022-08-21T04:58:20;4.37;;;3.97;;
3261;SDS011;1643;47.746;9.000;2022-08-21T05:00:47;3.80;;;3.50;;
3261;SDS011;1643;47.746;9.000;2022-08-21T05:03:13;3.40;;;3.10;;
3261;SDS011;1643;47.746;9.000;2022-08-21T05:05:41;4.27;;;3.87;;
3261;SDS011;1643;47.746;9.000;2022-08-21T05:08:08;3.40;;;3.10;;
3261;SDS011;1643;47.746;9.000;2022-08-21T05:10:37;4.00;;;3.50;;
3261;SDS011;1643;47.746;9.000;2022-08-21T05:13:03;7.30;;;4.50;;
3261;SDS011;1643;47.746;9.000;2022-08-21T05:15:31;4.03;;;3.63;;
3261;SDS011;1643;47.746;9.000;2022-08-21T05:17:56;4.20;;;3.63;;
3261;SDS011;1643;47.746;9.000;2022-08-21T05:20:22;5.50;;;3.70;;
3261;SDS011;1643;47.746;9.000;2022-08-21T05:22:48;4.50;;;3.87;;
3261;SDS011;1643;47.746;9.000;2022-08-21T05:25:14;4.03;;;3.70;;
3261;SDS011;1643;47.746;9.000;2022-08-21T05:27:39;4.53;;;3.87;;
3261;SDS011;1643;47.746;9.000;2022-08-21T05:30:06;4.00;;;3.60;;
3261;SDS011;1643;47.746;9.000;2022-08-21T05:32:33;3.83;;;3.43;;
3261;SDS011;1643;47.746;9.000;2022-08-21T05:34:58;4.43;;;3.23;;
3261;SDS011;1643;47.746;9.000;2022-08-21T05:37:24;4.70;;;3.93;;
3261;SDS011;1643;47.746;9.000;2022-08-21T05:39:50;3.37;;;3.07;;
3261;SDS011;1643;47.746;9.000;2022-08-21T05:42:16;4.17;;;3.77;;
3261;SDS011;1643;47.746;9.000;2022-08-21T05:44:41;4.40;;;3.87;;
3261;SDS011;1643;47.746;9.000;2022-08-21T05:47:08;4.00;;;3.70;;
3261;SDS011;1643;47.746;9.000;2022-08-21T05:49:35;3.97;;;3.60;;
3261;SDS011;1643;47.746;9.000;2022-08-21T05:52:02;5.90;;;3.73;;
3261;SDS011;1643;47.746;9.000;2022-08-21T05:54:29;4.30;;;3.90;;
3261;SDS011;1643;47.746;9.000;2022-08-21T05:56:55;4.73;;;3.60;;
3261;SDS011;1643;47.746;9.000;2022-08-21T05:59:22;4.17;;;3.77;;
3261;SDS011;1643;47.746;9.000;2022-08-21T06:01:48;4.57;;;4.00;;
3261;SDS011;1643;47.746;9.000;2022-08-21T06:04:14;3.33;;;3.03;;
3261;SDS011;1643;47.746;9.000;2022-08-21T06:06:41;3.23;;;3.00;;
3261;SDS011;1643;47.746;9.000;2022-08-21T06:09:06;3.83;;;3.53;;
3261;SDS011;1643;47.746;9.000;2022-08-21T06:11:32;3.83;;;3.43;;
3261;SDS011;1643;47.746;9.000;2022-08-21T06:13:59;3.87;;;3.47;;
3261;SDS011;1643;47.746;9.000;2022-08-21T06:16:25;3.30;;;3.00;;
3261;SDS011;1643;47.746;9.000;2022-08-21T06:18:51;3.50;;;3.13;;
3261;SDS011;1643;47.746;9.000;2022-08-21T06:21:17;4.10;;;3.73;;
3261;SDS011;1643;47.746;9.000;2022-08-21T06:23:43;4.33;;;3.97;;
3261;SDS011;1643;47.746;9.000;2022-08-21T06:26:11;4.00;;;3.50;;
3261;SDS011;1643;47.746;9.000;2022-08-21T06:28:38;4.57;;;3.77;;
3261;SDS011;1643;47.746;9.000;2022-08-21T06:31:14;4.00;;;3.63;;
3261;SDS011;1643;47.746;9.000;2022-08-21T06:33:42;4.13;;;3.70;;
3261;SDS011;1643;47.746;9.000;2022-08-21T06:36:08;5.00;;;4.27;;
3261;SDS011;1643;47.746;9.000;2022-08-21T06:38:34;3.97;;;3.57;;
3261;SDS011;1643;47.746;9.000;2022-08-21T06:41:00;4.07;;;3.67;;
3261;SDS011;1643;47.746;9.000;2022-08-21T06:43:25;5.30;;;4.27;;
3261;SDS011;1643;47.746;9.000;2022-08-21T06:45:51;5.30;;;4.80;;
3261;SDS011;1643;47.746;9.000;2022-08-21T06:48:17;4.60;;;4.10;;
3261;SDS011;1643;47.746;9.000;2022-08-21T06:50:43;4.90;;;4.07;;
3261;SDS011;1643;47.746;9.000;2022-08-21T06:53:10;4.40;;;4.00;;
3261;SDS011;1643;47.746;9.000;2022-08-21T06:55:37;4.03;;;3.73;;
3261;SDS011;1643;47.746;9.000;2022-08-21T06:58:04;4.33;;;3.87;;
3261;SDS011;1643;47.746;9.000;2022-08-21T07:00:30;5.10;;;3.77;;
3261;SDS011;1643;47.746;9.000;2022-08-21T07:02:57;4.27;;;3.87;;
3261;SDS011;1643;47.746;9.000;2022-08-21T07:05:27;3.67;;;3.30;;
3261;SDS011;1643;47.746;9.000;2022-08-21T07:07:55;5.10;;;4.27;;
3261;SDS011;1643;47.746;9.000;2022-08-21T07:10:22;7.30;;;4.80;;
3261;SDS011;1643;47.746;9.000;2022-08-21T07:12:51;4.33;;;3.93;;
3261;SDS011;1643;47.746;9.000;2022-08-21T07:15:19;5.80;;;4.80;;
3261;SDS011;1643;47.746;9.000;2022-08-21T07:17:44;4.90;;;4.50;;
3261;SDS011;1643;47.746;9.000;2022-08-21T07:20:10;4.40;;;4.00;;
3261;SDS011;1643;47.746;9.000;2022-08-21T07:22:36;4.73;;;3.60;;
3261;SDS011;1643;47.746;9.000;2022-08-21T07:25:04;5.20;;;4.23;;
3261;SDS011;1643;47.746;9.000;2022-08-21T07:27:30;4.90;;;4.27;;
3261;SDS011;1643;47.746;9.000;2022-08-21T07:29:56;5.10;;;4.53;;
3261;SDS011;1643;47.746;9.000;2022-08-21T07:32:22;4.80;;;4.30;;
3261;SDS011;1643;47.746;9.000;2022-08-21T07:34:48;4.97;;;4.47;;
3261;SDS011;1643;47.746;9.000;2022-08-21T07:37:14;4.80;;;4.30;;
3261;SDS011;1643;47.746;9.000;2022-08-21T07:39:40;5.07;;;4.57;;
3261;SDS011;1643;47.746;9.000;2022-08-21T07:42:05;8.20;;;5.50;;
3261;SDS011;1643;47.746;9.000;2022-08-21T07:44:31;6.73;;;5.87;;
3261;SDS011;1643;47.746;9.000;2022-08-21T07:46:59;5.10;;;4.60;;
3261;SDS011;1643;47.746;9.000;2022-08-21T07:49:26;6.50;;;5.30;;
3261;SDS011;1643;47.746;9.000;2022-08-21T07:51:52;6.53;;;5.30;;
3261;SDS011;1643;47.746;9.000;2022-08-21T07:54:18;6.33;;;5.50;;
3261;SDS011;1643;47.746;9.000;2022-08-21T07:56:43;5.17;;;4.67;;
3261;SDS011;1643;47.746;9.000;2022-08-21T07:59:09;4.60;;;4.10;;
3261;SDS011;1643;47.746;9.000;2022-08-21T08:01:35;4.90;;;4.40;;
3261;SDS011;1643;47.746;9.000;2022-08-21T08:04:00;4.23;;;3.83;;
3261;SDS011;1643;47.746;9.000;2022-08-21T08:06:26;4.97;;;3.83;;
3261;SDS011;1643;47.746;9.000;2022-08-21T08:08:52;3.40;;;3.10;;
3261;SDS011;1643;47.746;9.000;2022-08-21T08:11:17;4.27;;;3.87;;
3261;SDS011;1643;47.746;9.000;2022-08-21T08:13:47;3.30;;;3.00;;
3261;SDS011;1643;47.746;9.000;2022-08-21T08:16:14;3.60;;;3.27;;
3261;SDS011;1643;47.746;9.000;2022-08-21T08:18:40;3.23;;;2.90;;
3261;SDS011;1643;47.746;9.000;2022-08-21T08:21:08;4.03;;;3.63;;
3261;SDS011;1643;47.746;9.000;2022-08-21T08:23:35;3.70;;;3.20;;
3261;SDS011;1643;47.746;9.000;2022-08-21T08:26:01;2.80;;;2.60;;
3261;SDS011;1643;47.746;9.000;2022-08-21T08:28:30;3.00;;;2.80;;
3261;SDS011;1643;47.746;9.000;2022-08-21T08:30:58;3.37;;;3.03;;
3261;SDS011;1643;47.746;9.000;2022-08-21T08:33:25;3.33;;;2.83;;
3261;SDS011;1643;47.746;9.000;2022-08-21T08:35:52;3.13;;;2.70;;
3261;SDS011;1643;47.746;9.000;2022-08-21T08:38:19;4.40;;;3.50;;
3261;SDS011;1643;47.746;9.000;2022-08-21T08:43:20;4.50;;;3.90;;
3261;SDS011;1643;47.746;9.000;2022-08-21T08:45:48;3.13;;;2.83;;
3261;SDS011;1643;47.746;9.000;2022-08-21T08:48:21;3.07;;;2.87;;
3261;SDS011;1643;47.746;9.000;2022-08-21T08:51:06;2.57;;;2.37;;
3261;SDS011;1643;47.746;9.000;2022-08-21T08:53:45;3.67;;;2.83;;
3261;SDS011;1643;47.746;9.000;2022-08-21T08:56:23;3.73;;;3.43;;
3261;SDS011;1643;47.746;9.000;2022-08-21T08:58:53;3.20;;;2.90;;
3261;SDS011;1643;47.746;9.000;2022-08-21T09:01:23;3.97;;;3.30;;
3261;SDS011;1643;47.746;9.000;2022-08-21T09:03:49;2.70;;;2.50;;
3261;SDS011;1643;47.746;9.000;2022-08-21T09:11:26;2.90;;;2.70;;
3261;SDS011;1643;47.746;9.000;2022-08-21T09:14:09;3.03;;;2.77;;
3261;SDS011;1643;47.746;9.000;2022-08-21T09:16:50;2.90;;;2.70;;
3261;SDS011;1643;47.746;9.000;2022-08-21T09:25:19;3.20;;;2.30;;
3261;SDS011;1643;47.746;9.000;2022-08-21T09:27:54;3.73;;;2.57;;
3261;SDS011;1643;47.746;9.000;2022-08-21T09:30:30;3.03;;;2.83;;
3261;SDS011;1643;47.746;9.000;2022-08-21T09:33:03;3.40;;;2.77;;
3261;SDS011;1643;47.746;9.000;2022-08-21T09:35:29;3.43;;;2.90;;
3261;SDS011;1643;47.746;9.000;2022-08-21T09:40:43;3.17;;;2.73;;
3261;SDS011;1643;47.746;9.000;2022-08-21T09:45:37;2.60;;;2.40;;
3261;SDS011;1643;47.746;9.000;2022-08-21T09:48:08;2.50;;;2.30;;
3261;SDS011;1643;47.746;9.000;2022-08-21T09:50:37;2.93;;;2.00;;
3261;SDS011;1643;47.746;9.000;2022-08-21T09:53:03;2.83;;;2.33;;
3261;SDS011;1643;47.746;9.000;2022-08-21T09:55:34;2.57;;;2.40;;
3261;SDS011;1643;47.746;9.000;2022-08-21T09:58:29;2.60;;;2.33;;
3261;SDS011;1643;47.746;9.000;2022-08-21T10:00:59;3.30;;;2.97;;
3261;SDS011;1643;47.746;9.000;2022-08-21T10:03:26;3.67;;;2.93;;
3261;SDS011;1643;47.746;9.000;2022-08-21T10:08:21;4.27;;;2.90;;
3261;SDS011;1643;47.746;9.000;2022-08-21T10:10:50;3.70;;;3.40;;
3261;SDS011;1643;47.746;9.000;2022-08-21T10:13:21;2.47;;;2.27;;
3261;SDS011;1643;47.746;9.000;2022-08-21T10:21:31;2.47;;;2.27;;
3261;SDS011;1643;47.746;9.000;2022-08-21T10:24:13;2.73;;;2.53;;
3261;SDS011;1643;47.746;9.000;2022-08-21T10:26:56;4.87;;;3.03;;
3261;SDS011;1643;47.746;9.000;2022-08-21T10:35:08;2.40;;;2.23;;
3261;SDS011;1643;47.746;9.000;2022-08-21T10:37:48;3.50;;;3.20;;
3261;SDS011;1643;47.746;9.000;2022-08-21T10:55:08;2.53;;;2.37;;
3261;SDS011;1643;47.746;9.000;2022-08-21T11:00:18;2.70;;;2.50;;
3261;SDS011;1643;47.746;9.000;2022-08-21T11:02:57;2.97;;;2.40;;
3261;SDS011;1643;47.746;9.000;2022-08-21T11:05:33;2.20;;;2.10;;
3261;SDS011;1643;47.746;9.000;2022-08-21T11:10:57;4.20;;;2.57;;
3261;SDS011;1643;47.746;9.000;2022-08-21T11:13:33;3.80;;;2.57;;
3261;SDS011;1643;47.746;9.000;2022-08-21T11:18:52;3.10;;;2.47;;
3261;SDS011;1643;47.746;9.000;2022-08-21T11:29:48;2.10;;;2.00;;
3261;SDS011;1643;47.746;9.000;2022-08-21T11:40:31;2.30;;;2.10;;
3261;SDS011;1643;47.746;9.000;2022-08-21T11:43:16;2.90;;;2.50;;
3261;SDS011;1643;47.746;9.000;2022-08-21T11:51:46;2.17;;;2.03;;
3261;SDS011;1643;47.746;9.000;2022-08-21T11:54:28;2.83;;;1.90;;
3261;SDS011;1643;47.746;9.000;2022-08-21T11:57:05;5.70;;;2.50;;
3261;SDS011;1643;47.746;9.000;2022-08-21T12:02:51;6.40;;;1.73;;
3261;SDS011;1643;47.746;9.000;2022-08-21T12:05:38;3.07;;;1.73;;
3261;SDS011;1643;47.746;9.000;2022-08-21T12:10:41;2.23;;;1.90;;
3261;SDS011;1643;47.746;9.000;2022-08-21T12:13:24;2.47;;;1.90;;
3261;SDS011;1643;47.746;9.000;2022-08-21T12:15:51;2.73;;;2.03;;
3261;SDS011;1643;47.746;9.000;2022-08-21T12:18:27;2.10;;;1.90;;
3261;SDS011;1643;47.746;9.000;2022-08-21T12:23:58;2.37;;;1.87;;
3261;SDS011;1643;47.746;9.000;2022-08-21T12:29:05;1.93;;;1.83;;
3261;SDS011;1643;47.746;9.000;2022-08-21T12:31:51;1.80;;;1.70;;
3261;SDS011;1643;47.746;9.000;2022-08-21T12:34:22;3.27;;;1.80;;
3261;SDS011;1643;47.746;9.000;2022-08-21T12:36:57;2.13;;;1.93;;
3261;SDS011;1643;47.746;9.000;2022-08-21T12:39:27;8.23;;;1.80;;
3261;SDS011;1643;47.746;9.000;2022-08-21T12:41:58;3.00;;;1.70;;
3261;SDS011;1643;47.746;9.000;2022-08-21T12:44:38;2.53;;;1.87;;
3261;SDS011;1643;47.746;9.000;2022-08-21T12:50:40;2.00;;;1.90;;
3261;SDS011;1643;47.746;9.000;2022-08-21T12:55:30;1.77;;;1.60;;
3261;SDS011;1643;47.746;9.000;2022-08-21T12:57:58;2.30;;;1.97;;
3261;SDS011;1643;47.746;9.000;2022-08-21T13:00:25;2.03;;;1.63;;
3261;SDS011;1643;47.746;9.000;2022-08-21T13:02:53;1.80;;;1.67;;
3261;SDS011;1643;47.746;9.000;2022-08-21T13:05:37;2.27;;;1.90;;
3261;SDS011;1643;47.746;9.000;2022-08-21T13:08:05;1.90;;;1.80;;
3261;SDS011;1643;47.746;9.000;2022-08-21T13:10:34;1.50;;;1.40;;
3261;SDS011;1643;47.746;9.000;2022-08-21T13:13:03;1.50;;;1.40;;
3261;SDS011;1643;47.746;9.000;2022-08-21T13:15:32;1.77;;;1.60;;
3261;SDS011;1643;47.746;9.000;2022-08-21T13:18:01;1.60;;;1.50;;
3261;SDS011;1643;47.746;9.000;2022-08-21T13:20:32;2.20;;;1.60;;
3261;SDS011;1643;47.746;9.000;2022-08-21T13:23:03;1.60;;;1.20;;
3261;SDS011;1643;47.746;9.000;2022-08-21T13:25:36;1.53;;;1.43;;
3261;SDS011;1643;47.746;9.000;2022-08-21T13:28:07;1.63;;;1.40;;
3261;SDS011;1643;47.746;9.000;2022-08-21T13:30:40;1.40;;;1.30;;
3261;SDS011;1643;47.746;9.000;2022-08-21T13:33:09;1.30;;;1.20;;
3261;SDS011;1643;47.746;9.000;2022-08-21T13:35:46;1.53;;;1.43;;
3261;SDS011;1643;47.746;9.000;2022-08-21T13:38:21;1.40;;;1.30;;
3261;SDS011;1643;47.746;9.000;2022-08-21T13:41:18;2.13;;;1.57;;
3261;SDS011;1643;47.746;9.000;2022-08-21T13:43:49;1.30;;;1.20;;
3261;SDS011;1643;47.746;9.000;2022-08-21T13:46:22;1.30;;;1.20;;
3261;SDS011;1643;47.746;9.000;2022-08-21T13:48:49;1.57;;;1.20;;
3261;SDS011;1643;47.746;9.000;2022-08-21T13:51:15;1.50;;;1.40;;
3261;SDS011;1643;47.746;9.000;2022-08-21T13:56:09;1.30;;;1.20;;
3261;SDS011;1643;47.746;9.000;2022-08-21T13:58:58;1.33;;;1.23;;
3261;SDS011;1643;47.746;9.000;2022-08-21T14:01:39;1.30;;;1.20;;
3261;SDS011;1643;47.746;9.000;2022-08-21T14:06:48;1.70;;;1.60;;
3261;SDS011;1643;47.746;9.000;2022-08-21T14:09:23;1.93;;;1.70;;
3261;SDS011;1643;47.746;9.000;2022-08-21T14:12:02;1.37;;;1.07;;
3261;SDS011;1643;47.746;9.000;2022-08-21T14:14:37;3.10;;;1.30;;
3261;SDS011;1643;47.746;9.000;2022-08-21T14:17:05;1.70;;;1.50;;
3261;SDS011;1643;47.746;9.000;2022-08-21T14:19:41;1.87;;;1.77;;
3261;SDS011;1643;47.746;9.000;2022-08-21T14:25:01;1.83;;;1.60;;
3261;SDS011;1643;47.746;9.000;2022-08-21T14:27:36;1.63;;;1.40;;
3261;SDS011;1643;47.746;9.000;2022-08-21T14:30:12;1.80;;;1.70;;
3261;SDS011;1643;47.746;9.000;2022-08-21T14:32:44;2.00;;;1.40;;
3261;SDS011;1643;47.746;9.000;2022-08-21T14:35:10;1.60;;;1.40;;
3261;SDS011;1643;47.746;9.000;2022-08-21T14:37:36;3.10;;;1.20;;
3261;SDS011;1643;47.746;9.000;2022-08-21T14:40:03;1.40;;;1.30;;
3261;SDS011;1643;47.746;9.000;2022-08-21T14:42:29;2.70;;;1.10;;
3261;SDS011;1643;47.746;9.000;2022-08-21T14:44:57;2.93;;;1.83;;
3261;SDS011;1643;47.746;9.000;2022-08-21T14:47:27;1.60;;;1.50;;
3261;SDS011;1643;47.746;9.000;2022-08-21T14:49:53;2.20;;;1.30;;
3261;SDS011;1643;47.746;9.000;2022-08-21T14:52:19;1.30;;;1.20;;
3261;SDS011;1643;47.746;9.000;2022-08-21T14:54:45;1.33;;;1.20;;
3261;SDS011;1643;47.746;9.000;2022-08-21T14:57:11;1.37;;;1.27;;
3261;SDS011;1643;47.746;9.000;2022-08-21T14:59:39;1.40;;;1.20;;
3261;SDS011;1643;47.746;9.000;2022-08-21T15:02:06;1.40;;;1.30;;
3261;SDS011;1643;47.746;9.000;2022-08-21T15:04:33;1.20;;;1.10;;
3261;SDS011;1643;47.746;9.000;2022-08-21T15:06:59;1.73;;;1.47;;
3261;SDS011;1643;47.746;9.000;2022-08-21T15:09:25;2.60;;;1.40;;
3261;SDS011;1643;47.746;9.000;2022-08-21T15:11:52;1.50;;;1.33;;
3261;SDS011;1643;47.746;9.000;2022-08-21T15:14:20;1.50;;;1.37;;
3261;SDS011;1643;47.746;9.000;2022-08-21T15:16:48;1.30;;;1.20;;
3261;SDS011;1643;47.746;9.000;2022-08-21T15:19:15;1.50;;;1.40;;
3261;SDS011;1643;47.746;9.000;2022-08-21T15:21:40;1.30;;;1.20;;
3261;SDS011;1643;47.746;9.000;2022-08-21T15:24:06;1.23;;;1.13;;
3261;SDS011;1643;47.746;9.000;2022-08-21T15:26:32;1.50;;;1.40;;
3261;SDS011;1643;47.746;9.000;2022-08-21T15:28:59;2.73;;;1.17;;
3261;SDS011;1643;47.746;9.000;2022-08-21T15:31:24;1.33;;;1.10;;
3261;SDS011;1643;47.746;9.000;2022-08-21T15:33:50;1.93;;;1.50;;
3261;SDS011;1643;47.746;9.000;2022-08-21T15:36:16;1.97;;;1.30;;
3261;SDS011;1643;47.746;9.000;2022-08-21T15:38:43;3.20;;;1.50;;
3261;SDS011;1643;47.746;9.000;2022-08-21T15:41:10;1.40;;;1.30;;
3261;SDS011;1643;47.746;9.000;2022-08-21T15:43:44;1.30;;;1.20;;
3261;SDS011;1643;47.746;9.000;2022-08-21T15:46:12;2.23;;;1.20;;
3261;SDS011;1643;47.746;9.000;2022-08-21T15:48:39;1.60;;;1.50;;
3261;SDS011;1643;47.746;9.000;2022-08-21T15:51:05;2.60;;;1.50;;
3261;SDS011;1643;47.746;9.000;2022-08-21T15:53:31;1.70;;;1.50;;
3261;SDS011;1643;47.746;9.000;2022-08-21T15:56:00;1.40;;;1.30;;
3261;SDS011;1643;47.746;9.000;2022-08-21T15:58:27;2.23;;;1.50;;
3261;SDS011;1643;47.746;9.000;2022-08-21T16:00:53;2.97;;;1.40;;
3261;SDS011;1643;47.746;9.000;2022-08-21T16:03:19;1.60;;;1.50;;
3261;SDS011;1643;47.746;9.000;2022-08-21T16:05:47;1.20;;;1.10;;
3261;SDS011;1643;47.746;9.000;2022-08-21T16:08:17;1.23;;;1.20;;
3261;SDS011;1643;47.746;9.000;2022-08-21T16:10:44;1.53;;;1.40;;
3261;SDS011;1643;47.746;9.000;2022-08-21T16:13:18;2.17;;;1.40;;
3261;SDS011;1643;47.746;9.000;2022-08-21T16:15:49;2.63;;;1.10;;
3261;SDS011;1643;47.746;9.000;2022-08-21T16:18:16;1.33;;;1.20;;
3261;SDS011;1643;47.746;9.000;2022-08-21T16:20:42;1.10;;;1.00;;
3261;SDS011;1643;47.746;9.000;2022-08-21T16:23:08;1.60;;;1.50;;
3261;SDS011;1643;47.746;9.000;2022-08-21T16:25:36;1.33;;;1.10;;
3261;SDS011;1643;47.746;9.000;2022-08-21T16:28:05;1.30;;;1.20;;
3261;SDS011;1643;47.746;9.000;2022-08-21T16:30:33;2.13;;;1.10;;
3261;SDS011;1643;47.746;9.000;2022-08-21T16:33:00;1.60;;;1.50;;
3261;SDS011;1643;47.746;9.000;2022-08-21T16:35:27;1.33;;;1.20;;
3261;SDS011;1643;47.746;9.000;2022-08-21T16:37:53;1.47;;;1.30;;
3261;SDS011;1643;47.746;9.000;2022-08-21T16:40:19;1.00;;;1.00;;
3261;SDS011;1643;47.746;9.000;2022-08-21T16:42:51;1.40;;;1.30;;
3261;SDS011;1643;47.746;9.000;2022-08-21T16:45:18;1.37;;;0.90;;
3261;SDS011;1643;47.746;9.000;2022-08-21T16:47:45;1.30;;;1.20;;
3261;SDS011;1643;47.746;9.000;2022-08-21T16:50:15;2.00;;;1.43;;
3261;SDS011;1643;47.746;9.000;2022-08-21T16:52:43;1.63;;;1.20;;
3261;SDS011;1643;47.746;9.000;2022-08-21T16:55:09;3.67;;;1.60;;
3261;SDS011;1643;47.746;9.000;2022-08-21T16:57:35;1.73;;;1.30;;
3261;SDS011;1643;47.746;9.000;2022-08-21T17:00:03;1.10;;;1.00;;
3261;SDS011;1643;47.746;9.000;2022-08-21T17:02:38;1.33;;;1.23;;
3261;SDS011;1643;47.746;9.000;2022-08-21T17:05:06;1.10;;;0.90;;
3261;SDS011;1643;47.746;9.000;2022-08-21T17:07:33;1.30;;;1.20;;
3261;SDS011;1643;47.746;9.000;2022-08-21T17:09:59;1.10;;;1.03;;